Time;durP1;ratioP1;P1;durP2;ratioP2;P2;SDS_P1;SDS_P2;PMS_P1;PMS_P2;Temp;Humidity;BMP_temperature;BMP_pressure;BME280_temperature;BME280_humidity;BME280_pressure;Samples;Min_cycle;Max_cycle;Signal;HPM_P1;HPM_P2
2022/10/20 00:02:40;;;;;;;5.53;2.42;;;21.60;69.10;;;;;;6242108;23;20004;-70
2022/10/20 00:05:46;;;;;;;6.07;2.40;;;21.70;69.50;;;;;;6242690;23;20487;-70
2022/10/20 02:16:32;;;;;;;6.65;3.33;;;20.60;75.10;;;;;;5111131;27;20424;-71
2022/10/20 02:18:59;;;;;;;11.57;3.75;;;20.80;75.50;;;;;;5089640;28;20024;-72
2022/10/20 02:21:26;;;;;;;11.57;2.25;;;20.80;75.50;;;;;;5078092;28;20027;-72
2022/10/20 02:23:56;;;;;;;12.77;2.65;;;20.90;75.40;;;;;;5077201;28;20035;-71
2022/10/20 02:26:24;;;;;;;8.82;1.85;;;20.90;75.30;;;;;;5079829;28;20031;-71
2022/10/20 02:29:01;;;;;;;6.10;2.67;;;20.90;75.20;;;;;;5076542;28;20024;-71
2022/10/20 02:31:28;;;;;;;4.97;2.05;;;21.00;75.00;;;;;;5082280;28;20020;-71
2022/10/20 02:33:56;;;;;;;5.78;2.45;;;21.00;74.90;;;;;;5081201;28;20020;-71
2022/10/20 02:36:26;;;;;;;5.78;2.58;;;21.00;74.80;;;;;;5075694;28;20013;-72
2022/10/20 02:38:53;;;;;;;6.40;1.80;;;21.00;74.60;;;;;;5081158;28;20479;-72
2022/10/20 02:41:20;;;;;;;7.85;2.03;;;21.00;74.60;;;;;;5084843;28;20526;-71
2022/10/20 02:43:46;;;;;;;5.43;1.90;;;21.00;74.60;;;;;;5078438;28;20040;-72
2022/10/20 02:46:13;;;;;;;6.60;1.95;;;21.10;74.60;;;;;;5080466;28;20031;-71
2022/10/20 02:48:39;;;;;;;3.63;1.83;;;21.00;74.60;;;;;;5080890;28;20020;-71
2022/10/20 02:51:05;;;;;;;10.48;2.58;;;21.00;74.40;;;;;;5085837;28;20052;-70
2022/10/20 02:53:33;;;;;;;8.55;2.30;;;21.00;74.30;;;;;;5081307;28;20028;-71
2022/10/20 02:56:00;;;;;;;10.05;2.35;;;21.00;74.10;;;;;;5077153;28;20020;-72
2022/10/20 02:58:26;;;;;;;7.35;1.55;;;21.00;74.00;;;;;;5082209;28;20017;-72
2022/10/20 03:00:52;;;;;;;7.88;2.38;;;21.00;73.90;;;;;;5080775;28;20052;-69
2022/10/20 03:03:19;;;;;;;11.18;7.45;;;21.00;73.90;;;;;;5084153;28;20039;-72
2022/10/20 03:05:46;;;;;;;17.63;9.10;;;21.00;74.40;;;;;;5077356;28;20418;-71
2022/10/20 03:08:14;;;;;;;9.50;5.85;;;21.00;74.80;;;;;;5077193;28;20032;-72
2022/10/20 03:10:41;;;;;;;10.18;4.40;;;21.00;74.60;;;;;;5075085;28;20078;-73
2022/10/20 03:13:09;;;;;;;7.68;2.88;;;21.00;74.30;;;;;;5079584;28;20028;-71
2022/10/20 03:15:36;;;;;;;6.35;2.50;;;21.00;74.00;;;;;;5089322;28;20044;-71
2022/10/20 03:18:03;;;;;;;9.18;2.22;;;20.90;73.80;;;;;;5090359;28;20382;-70
2022/10/20 03:20:30;;;;;;;5.65;2.30;;;20.90;73.70;;;;;;5091544;28;20024;-71
2022/10/20 03:22:56;;;;;;;5.20;2.15;;;20.90;73.50;;;;;;5089683;28;20035;-71
2022/10/20 03:25:23;;;;;;;9.93;3.17;;;20.90;73.50;;;;;;5089745;28;20513;-71
2022/10/20 03:27:49;;;;;;;7.05;2.08;;;20.90;73.40;;;;;;5085270;28;20020;-72
2022/10/20 03:30:16;;;;;;;5.88;1.77;;;20.80;73.30;;;;;;5085717;28;20113;-71
2022/10/20 03:32:42;;;;;;;4.78;2.10;;;20.80;73.20;;;;;;5082326;28;20035;-71
2022/10/20 03:35:09;;;;;;;6.85;2.70;;;20.80;73.20;;;;;;5085346;28;20020;-71
2022/10/20 03:37:35;;;;;;;10.27;3.22;;;20.80;73.20;;;;;;5088541;28;20031;-71
2022/10/20 03:40:02;;;;;;;22.08;15.15;;;20.80;73.30;;;;;;5084099;28;20052;-71
2022/10/20 03:42:28;;;;;;;21.48;11.40;;;20.70;73.50;;;;;;5082737;28;20020;-71
2022/10/20 03:44:54;;;;;;;14.25;6.50;;;20.70;73.50;;;;;;5083111;28;20028;-71
2022/10/20 03:47:21;;;;;;;14.68;8.23;;;20.70;73.50;;;;;;5087064;28;20055;-71
2022/10/20 03:49:47;;;;;;;9.75;6.75;;;20.70;73.40;;;;;;5089056;28;20374;-71
2022/10/20 03:52:14;;;;;;;6.57;3.90;;;20.60;73.30;;;;;;5084267;28;20024;-71
2022/10/20 03:54:40;;;;;;;8.10;3.63;;;20.60;73.30;;;;;;5083987;28;20040;-72
2022/10/20 03:57:07;;;;;;;9.07;2.92;;;20.60;73.30;;;;;;5084047;28;20035;-71
2022/10/20 03:59:33;;;;;;;8.75;2.95;;;20.60;73.20;;;;;;5090128;28;20075;-71
2022/10/20 04:02:00;;;;;;;4.05;2.20;;;20.60;73.20;;;;;;5086166;28;20512;-70
2022/10/20 04:04:26;;;;;;;9.88;3.05;;;20.50;73.10;;;;;;5085096;28;20090;-71
2022/10/20 04:06:53;;;;;;;16.10;3.00;;;20.50;73.10;;;;;;5084258;28;20118;-70
2022/10/20 04:09:19;;;;;;;8.77;1.90;;;20.50;73.30;;;;;;5083845;28;20024;-68
2022/10/20 04:11:46;;;;;;;7.90;3.15;;;20.50;73.90;;;;;;5085614;28;20506;-69
2022/10/20 04:14:12;;;;;;;6.57;2.17;;;20.50;74.60;;;;;;5085632;28;20028;-71
2022/10/20 04:16:40;;;;;;;7.68;2.38;;;20.50;74.40;;;;;;5082994;28;20024;-71
2022/10/20 04:19:07;;;;;;;4.82;2.75;;;20.50;74.10;;;;;;5080583;28;20023;-71
2022/10/20 04:21:33;;;;;;;5.82;2.55;;;20.40;73.90;;;;;;5081038;28;20032;-71
2022/10/20 04:24:00;;;;;;;5.47;2.20;;;20.40;73.90;;;;;;5077982;28;20032;-71
2022/10/20 04:26:26;;;;;;;12.60;5.28;;;20.40;73.80;;;;;;5083314;28;20025;-71
2022/10/20 04:28:56;;;;;;;13.65;7.05;;;20.40;73.80;;;;;;5088662;28;20418;-70
2022/10/20 04:31:22;;;;;;;15.70;6.90;;;20.40;73.80;;;;;;5088548;28;20091;-70
2022/10/20 04:33:49;;;;;;;12.65;5.13;;;20.40;73.80;;;;;;5093126;28;20024;-71
2022/10/20 04:36:15;;;;;;;7.35;3.97;;;20.40;73.80;;;;;;5084960;28;20405;-74
2022/10/20 04:38:42;;;;;;;10.38;4.35;;;20.40;73.80;;;;;;5086188;28;20118;-70
2022/10/20 04:41:10;;;;;;;10.05;3.05;;;20.30;73.80;;;;;;5080885;28;20017;-72
2022/10/20 04:43:37;;;;;;;4.97;2.28;;;20.40;73.90;;;;;;5082445;28;20028;-71
2022/10/20 04:46:05;;;;;;;6.78;3.83;;;20.40;74.00;;;;;;5080821;28;20483;-73
2022/10/20 04:48:32;;;;;;;8.02;2.65;;;20.40;73.90;;;;;;5080749;28;20032;-71
2022/10/20 04:51:05;;;;;;;6.70;2.45;;;20.30;73.90;;;;;;5082928;28;20028;-71
2022/10/20 04:53:31;;;;;;;8.65;3.72;;;20.30;73.90;;;;;;5084272;28;20035;-70
2022/10/20 04:55:58;;;;;;;6.50;2.33;;;20.30;74.00;;;;;;5087447;28;20031;-71
2022/10/20 04:58:25;;;;;;;9.52;2.97;;;20.30;74.20;;;;;;5078512;28;20123;-71
2022/10/20 05:00:51;;;;;;;9.13;3.05;;;20.30;74.40;;;;;;5080421;28;20052;-71
2022/10/20 05:03:19;;;;;;;5.68;1.80;;;20.30;74.80;;;;;;5088307;28;20099;-71
2022/10/20 05:05:48;;;;;;;8.27;2.75;;;20.30;75.10;;;;;;5078899;28;20671;-71
2022/10/20 05:08:15;;;;;;;8.30;3.40;;;20.30;75.30;;;;;;5081702;28;20043;-71
2022/10/20 05:10:42;;;;;;;10.00;1.98;;;20.30;75.60;;;;;;5079162;28;20058;-71
2022/10/20 05:13:09;;;;;;;4.88;1.67;;;20.30;75.70;;;;;;5085597;28;20114;-71
2022/10/20 05:15:35;;;;;;;11.05;3.25;;;20.40;76.00;;;;;;5083017;28;20139;-71
2022/10/20 05:18:02;;;;;;;7.75;2.20;;;20.40;76.10;;;;;;5078189;28;20025;-71
2022/10/20 05:20:28;;;;;;;7.07;2.53;;;20.40;76.30;;;;;;5083483;28;20028;-71
2022/10/20 05:22:55;;;;;;;5.90;2.00;;;20.40;76.50;;;;;;5083257;28;20034;-71
2022/10/20 05:25:21;;;;;;;7.10;1.90;;;20.40;76.40;;;;;;5099250;27;20082;-71
2022/10/20 05:27:48;;;;;;;5.22;2.03;;;20.40;76.50;;;;;;5081620;28;20009;-71
2022/10/20 05:30:14;;;;;;;7.53;2.85;;;20.40;76.70;;;;;;5080068;28;20508;-71
2022/10/20 05:32:41;;;;;;;8.05;2.33;;;20.40;76.80;;;;;;5083291;28;20028;-71
2022/10/20 05:35:07;;;;;;;5.97;2.72;;;20.40;76.90;;;;;;5101735;27;20467;-71
2022/10/20 05:37:34;;;;;;;13.02;2.47;;;20.50;76.90;;;;;;5087991;28;20024;-71
2022/10/20 05:40:02;;;;;;;3.47;2.55;;;20.50;76.90;;;;;;5086398;28;20024;-71
2022/10/20 05:42:28;;;;;;;5.38;2.47;;;20.50;76.70;;;;;;5088249;28;20111;-71
2022/10/20 05:44:55;;;;;;;9.82;2.53;;;20.50;76.40;;;;;;5078711;28;20032;-71
2022/10/20 05:47:21;;;;;;;4.78;3.10;;;20.50;76.10;;;;;;5107602;27;20375;-71
2022/10/20 05:49:48;;;;;;;6.35;2.40;;;20.60;75.80;;;;;;5075798;28;20032;-71
2022/10/20 05:52:14;;;;;;;7.03;3.53;;;20.60;75.50;;;;;;5085697;28;20099;-71
2022/10/20 05:54:41;;;;;;;6.38;2.95;;;20.60;75.20;;;;;;5084195;28;20024;-71
2022/10/20 05:57:07;;;;;;;4.90;2.40;;;20.60;74.80;;;;;;5080495;28;20090;-71
2022/10/20 05:59:34;;;;;;;11.75;3.65;;;20.60;75.00;;;;;;5080665;28;20024;-71
2022/10/20 06:02:00;;;;;;;8.05;3.45;;;20.70;76.10;;;;;;5082352;28;20043;-71
2022/10/20 06:04:27;;;;;;;15.98;4.20;;;20.70;76.00;;;;;;5083969;28;20028;-71
2022/10/20 06:06:55;;;;;;;10.48;3.75;;;20.80;76.10;;;;;;5081158;28;20368;-71
2022/10/20 06:09:23;;;;;;;4.95;2.47;;;20.80;75.60;;;;;;5082513;28;20017;-71
2022/10/20 06:11:50;;;;;;;6.40;2.35;;;20.90;75.20;;;;;;5080248;28;20024;-71
2022/10/20 06:14:17;;;;;;;10.60;2.10;;;20.90;74.50;;;;;;5084024;28;20024;-71
2022/10/20 06:16:44;;;;;;;2.67;2.42;;;20.90;73.60;;;;;;5078313;28;20028;-71
2022/10/20 06:19:10;;;;;;;4.00;3.30;;;20.90;72.80;;;;;;5083688;28;20017;-71
2022/10/20 06:21:37;;;;;;;4.85;2.80;;;20.90;72.40;;;;;;5082434;28;20024;-71
2022/10/20 06:24:05;;;;;;;9.43;2.65;;;21.00;72.40;;;;;;5088350;28;20028;-71
2022/10/20 06:26:35;;;;;;;6.55;2.72;;;21.00;72.70;;;;;;5080961;28;20028;-71
2022/10/20 06:29:03;;;;;;;9.55;5.05;;;21.00;73.50;;;;;;5098475;28;20456;-70
2022/10/20 06:31:32;;;;;;;8.80;2.67;;;21.10;73.00;;;;;;5086949;28;20020;-71
2022/10/20 06:33:59;;;;;;;9.55;3.17;;;21.10;73.20;;;;;;5082572;28;20020;-71
2022/10/20 06:36:26;;;;;;;11.07;4.43;;;21.10;73.20;;;;;;5083773;28;20023;-71
2022/10/20 06:38:58;;;;;;;7.70;3.25;;;21.20;73.20;;;;;;5080959;28;20032;-71
2022/10/20 06:41:26;;;;;;;11.32;3.60;;;21.20;73.20;;;;;;5085639;28;20020;-70
2022/10/20 06:43:57;;;;;;;7.32;3.00;;;21.20;73.00;;;;;;5093132;28;20055;-70
2022/10/20 06:46:24;;;;;;;9.80;2.83;;;21.30;72.80;;;;;;5083892;28;20016;-70
2022/10/20 06:48:51;;;;;;;7.80;4.68;;;21.30;72.50;;;;;;5090540;28;20051;-70
2022/10/20 06:51:20;;;;;;;10.35;5.38;;;21.30;72.20;;;;;;5090990;28;20012;-71
2022/10/20 06:53:48;;;;;;;10.52;3.33;;;21.40;72.00;;;;;;5096637;28;20028;-71
2022/10/20 06:56:16;;;;;;;11.10;2.15;;;21.40;71.70;;;;;;5090591;28;20019;-70
2022/10/20 06:58:45;;;;;;;6.47;2.53;;;21.40;71.50;;;;;;5095753;28;20031;-70
2022/10/20 07:01:15;;;;;;;5.25;2.10;;;21.50;71.40;;;;;;5093771;28;20490;-70
2022/10/20 07:03:43;;;;;;;11.98;2.60;;;21.50;70.60;;;;;;5098752;28;20024;-70
2022/10/20 07:06:16;;;;;;;4.15;2.00;;;21.50;70.50;;;;;;5098747;28;20034;-70
2022/10/20 07:08:42;;;;;;;10.88;2.22;;;21.60;70.00;;;;;;5089495;28;20054;-70
2022/10/20 07:11:15;;;;;;;3.97;2.05;;;21.60;69.70;;;;;;5091897;28;20030;-71
2022/10/20 07:13:42;;;;;;;2.65;1.45;;;21.70;69.20;;;;;;5098048;28;20027;-71
2022/10/20 07:16:12;;;;;;;6.40;2.20;;;21.70;69.30;;;;;;5087262;28;20469;-70
2022/10/20 07:18:39;;;;;;;3.78;2.08;;;21.70;69.00;;;;;;5098053;28;20412;-70
2022/10/20 07:21:14;;;;;;;5.47;2.40;;;21.80;69.30;;;;;;5086238;28;20077;-70
2022/10/20 07:23:41;;;;;;;5.65;1.75;;;21.80;68.00;;;;;;5093205;28;20032;-70
2022/10/20 07:26:12;;;;;;;2.17;1.40;;;21.90;67.30;;;;;;5089101;28;20093;-71
2022/10/20 07:28:42;;;;;;;5.85;1.27;;;21.90;67.00;;;;;;5093624;28;20024;-70
2022/10/20 07:31:14;;;;;;;8.98;1.70;;;21.90;66.50;;;;;;5084000;28;20041;-70
2022/10/20 07:33:40;;;;;;;5.60;1.20;;;22.00;66.20;;;;;;5093818;28;20053;-70
2022/10/20 07:36:16;;;;;;;3.45;1.02;;;22.00;65.80;;;;;;5094945;28;20024;-70
2022/10/20 07:38:44;;;;;;;4.95;0.93;;;22.10;65.30;;;;;;5083968;28;20111;-70
2022/10/20 07:41:10;;;;;;;7.28;1.38;;;22.00;64.60;;;;;;5092881;28;20016;-70
2022/10/20 07:43:38;;;;;;;7.07;1.63;;;22.10;64.60;;;;;;5089605;28;20026;-70
2022/10/20 07:46:05;;;;;;;6.65;2.40;;;22.10;64.40;;;;;;5092774;28;20036;-69
2022/10/20 07:48:32;;;;;;;5.20;1.02;;;22.20;64.00;;;;;;5095566;28;20032;-70
2022/10/20 07:51:33;;;;;;;2.28;0.90;;;22.20;63.30;;;;;;5090859;28;20055;-70
2022/10/20 07:54:02;;;;;;;2.40;1.05;;;22.20;62.70;;;;;;5091790;28;20049;-70
2022/10/20 07:56:31;;;;;;;1.70;0.80;;;22.20;62.00;;;;;;5090563;28;20409;-71
2022/10/20 07:58:58;;;;;;;2.35;0.88;;;22.20;61.90;;;;;;5088968;28;20074;-70
2022/10/20 08:01:25;;;;;;;2.80;0.77;;;22.30;61.80;;;;;;5089922;28;20101;-70
2022/10/20 11:26:16;;;;;;;7.20;2.83;;;25.50;51.80;;;;;;6339143;22;20018;-71
2022/10/20 11:28:45;;;;;;;5.70;2.92;;;25.50;51.30;;;;;;6366860;22;20036;-71
2022/10/20 11:31:41;;;;;;;5.53;2.47;;;25.60;50.70;;;;;;6364985;22;20010;-72
2022/10/20 11:34:13;;;;;;;;;;;25.60;49.70;;;;;;6357061;22;20003;-72
2022/10/20 11:37:12;;;;;;;5.22;1.80;;;25.70;49.30;;;;;;6366262;22;19898;-72
2022/10/20 11:39:56;;;;;;;6.28;1.88;;;25.70;48.90;;;;;;6365267;22;19994;-72
2022/10/20 11:42:51;;;;;;;5.95;1.40;;;25.80;48.80;;;;;;6367614;22;19999;-72
2022/10/20 11:45:24;;;;;;;6.73;2.23;;;25.80;48.30;;;;;;6366135;22;19998;-72
2022/10/20 11:48:13;;;;;;;5.50;1.80;;;25.90;48.00;;;;;;6365744;22;20546;-72
2022/10/20 11:50:42;;;;;;;6.30;1.35;;;25.80;47.80;;;;;;6366419;22;20314;-72
2022/10/20 11:53:34;;;;;;;4.75;1.15;;;25.90;47.60;;;;;;6365319;22;20437;-72
2022/10/20 11:56:21;;;;;;;5.57;1.75;;;25.90;47.40;;;;;;6366776;22;20031;-72
2022/10/20 11:59:12;;;;;;;11.57;3.15;;;25.90;47.90;;;;;;6317156;22;20030;-72
2022/10/20 12:02:00;;;;;;;3.75;1.40;;;25.90;47.00;;;;;;6365173;22;20417;-72
2022/10/20 12:04:32;;;;;;;9.82;1.85;;;25.90;46.70;;;;;;6366506;22;20043;-72
2022/10/20 12:07:39;;;;;;;5.93;2.38;;;25.90;46.70;;;;;;6366329;22;20139;-72
2022/10/20 12:10:39;;;;;;;9.55;1.88;;;25.90;46.30;;;;;;6365289;22;20005;-71
2022/10/20 12:14:03;;;;;;;6.40;1.80;;;26.00;46.50;;;;;;6366215;22;20309;-72
2022/10/20 12:16:53;;;;;;;7.28;1.50;;;26.10;46.60;;;;;;6270196;22;20008;-72
2022/10/20 12:19:21;;;;;;;6.78;2.10;;;26.10;46.30;;;;;;6267974;22;20069;-72
2022/10/20 12:22:22;;;;;;;4.88;1.83;;;26.10;45.90;;;;;;6332300;22;20002;-72
2022/10/20 12:24:52;;;;;;;3.47;1.73;;;26.20;45.90;;;;;;6365727;22;20150;-72
2022/10/20 12:27:21;;;;;;;5.25;1.42;;;26.10;45.90;;;;;;6365387;22;20017;-72
2022/10/20 12:29:54;;;;;;;6.45;1.95;;;26.20;45.90;;;;;;6366439;22;20456;-72
2022/10/20 12:32:33;;;;;;;13.07;3.03;;;26.10;45.80;;;;;;6364741;22;20052;-72
2022/10/20 12:35:10;;;;;;;9.02;2.00;;;26.20;45.90;;;;;;6365688;22;20006;-72
2022/10/20 12:37:37;;;;;;;7.50;2.55;;;26.20;45.50;;;;;;6365963;22;19994;-72
2022/10/20 12:40:07;;;;;;;5.22;1.45;;;26.20;45.40;;;;;;6365061;22;20314;-72
2022/10/20 12:42:45;;;;;;;7.55;2.50;;;26.20;45.40;;;;;;6365955;22;20002;-72
2022/10/20 12:45:17;;;;;;;3.40;1.58;;;26.30;45.50;;;;;;6364975;22;20047;-72
2022/10/20 12:47:57;;;;;;;7.43;2.45;;;26.30;45.40;;;;;;6366270;22;20002;-72
2022/10/20 12:50:33;;;;;;;13.70;2.17;;;26.30;45.40;;;;;;6365571;22;20428;-72
2022/10/20 12:53:39;;;;;;;4.28;1.60;;;26.30;45.50;;;;;;6365932;22;20006;-72
2022/10/20 12:56:07;;;;;;;6.47;2.50;;;26.20;45.60;;;;;;6269293;22;20007;-72
2022/10/20 12:58:36;;;;;;;10.88;2.55;;;26.30;45.70;;;;;;6268050;22;20008;-72
2022/10/20 13:01:06;;;;;;;11.60;1.92;;;26.30;45.80;;;;;;6318516;22;20467;-72
2022/10/20 13:03:43;;;;;;;5.93;1.65;;;26.30;45.80;;;;;;6365700;22;19995;-72
2022/10/20 13:06:29;;;;;;;4.50;1.80;;;26.30;45.90;;;;;;6365142;22;20029;-72
2022/10/20 13:09:05;;;;;;;11.15;2.13;;;26.30;46.10;;;;;;6366329;22;20467;-72
2022/10/20 13:11:42;;;;;;;6.65;1.80;;;26.30;46.30;;;;;;6364435;22;20079;-72
2022/10/20 13:14:56;;;;;;;10.15;2.17;;;26.30;46.50;;;;;;6365847;22;19999;-72
2022/10/20 13:17:44;;;;;;;10.00;2.55;;;26.30;46.70;;;;;;6312831;22;19998;-72
2022/10/20 13:20:50;;;;;;;11.90;2.40;;;26.20;47.00;;;;;;6364282;22;20373;-72
2022/10/20 13:23:17;;;;;;;;;;;26.20;47.30;;;;;;6328652;22;20003;-72
2022/10/20 13:25:48;;;;;;;7.65;1.83;;;26.30;47.40;;;;;;6365575;22;19914;-72
2022/10/20 13:28:20;;;;;;;7.63;3.03;;;26.20;47.40;;;;;;6364495;22;20014;-72
2022/10/20 13:31:14;;;;;;;5.38;2.25;;;26.20;47.40;;;;;;6365822;22;20002;-72
2022/10/20 13:34:03;;;;;;;4.82;1.80;;;26.20;47.50;;;;;;6365357;22;20441;-72
2022/10/20 13:36:54;;;;;;;6.95;2.47;;;26.20;47.60;;;;;;6364721;22;19998;-72
2022/10/20 13:39:20;;;;;;;11.48;2.28;;;26.20;47.40;;;;;;6366147;22;20307;-73
2022/10/20 13:42:28;;;;;;;7.78;1.70;;;26.20;47.40;;;;;;6363896;22;20006;-72
2022/10/20 13:45:25;;;;;;;9.52;1.98;;;26.20;47.60;;;;;;6365397;22;20002;-72
2022/10/20 13:48:16;;;;;;;8.45;2.35;;;26.10;47.70;;;;;;6365443;22;20460;-72
2022/10/20 13:50:49;;;;;;;7.57;2.05;;;26.10;48.10;;;;;;6363653;22;20006;-72
2022/10/20 13:53:24;;;;;;;10.18;2.03;;;26.10;48.20;;;;;;6365640;22;19998;-72
2022/10/20 13:56:09;;;;;;;11.82;2.78;;;26.00;48.20;;;;;;6365748;22;20101;-72
2022/10/20 13:58:35;;;;;;;10.38;2.80;;;26.10;48.20;;;;;;6363898;22;20022;-72
2022/10/20 14:01:23;;;;;;;6.40;2.78;;;25.90;48.10;;;;;;6365448;22;20017;-72
2022/10/20 14:03:50;;;;;;;8.88;3.83;;;25.90;48.20;;;;;;6364518;22;19998;-72
2022/10/20 14:06:37;;;;;;;20.95;2.55;;;25.90;48.40;;;;;;6365141;22;20379;-72
2022/10/20 14:09:22;;;;;;;9.77;2.53;;;25.90;48.40;;;;;;6365079;22;20002;-72
2022/10/20 14:11:50;;;;;;;;;;;25.90;48.50;;;;;;6365124;22;20037;-71
2022/10/20 14:14:24;;;;;;;8.77;3.03;;;25.90;48.70;;;;;;6365567;22;19909;-74
2022/10/20 14:17:05;;;;;;;14.80;2.90;;;25.90;49.60;;;;;;6367949;22;20022;-77
2022/10/20 14:19:33;;;;;;;22.38;3.75;;;25.90;49.90;;;;;;6368327;22;20006;-77
2022/10/20 14:22:15;;;;;;;12.13;2.72;;;25.80;50.30;;;;;;6365519;22;20077;-77
2022/10/20 14:24:47;;;;;;;5.90;3.20;;;25.80;49.40;;;;;;6364154;22;20013;-78
2022/10/20 14:27:27;;;;;;;11.10;2.13;;;25.70;48.80;;;;;;6361452;22;20029;-75
2022/10/20 14:29:54;;;;;;;8.65;3.85;;;25.70;48.60;;;;;;6364762;22;20106;-77
2022/10/20 14:32:24;;;;;;;15.80;6.57;;;25.60;48.80;;;;;;6363139;22;20334;-74
2022/10/20 14:34:57;;;;;;;12.07;4.90;;;25.50;49.30;;;;;;6365343;22;20018;-74
2022/10/20 14:37:39;;;;;;;10.65;3.47;;;25.50;48.70;;;;;;6363606;22;20045;-73
2022/10/20 14:40:28;;;;;;;7.82;2.88;;;25.50;49.10;;;;;;6365823;22;19998;-73
2022/10/20 14:43:02;;;;;;;7.95;2.20;;;25.50;49.20;;;;;;6363654;22;20027;-74
2022/10/20 14:45:29;;;;;;;13.00;2.88;;;25.40;49.10;;;;;;6365206;22;20065;-73
2022/10/20 14:47:58;;;;;;;10.35;2.47;;;25.40;49.10;;;;;;6365379;22;20007;-78
2022/10/20 14:50:32;;;;;;;8.73;2.53;;;25.30;49.40;;;;;;6364125;22;20055;-74
2022/10/20 14:53:21;;;;;;;8.57;2.55;;;25.30;49.50;;;;;;6365228;22;20010;-74
2022/10/20 14:55:48;;;;;;;10.25;6.43;;;25.30;49.40;;;;;;6364871;22;19998;-73
2022/10/20 14:59:00;;;;;;;19.17;7.65;;;25.20;49.60;;;;;;6365468;22;20003;-72
2022/10/20 15:01:31;;;;;;;9.15;4.43;;;25.10;49.60;;;;;;6323550;22;20413;-77
2022/10/20 15:04:06;;;;;;;90.18;13.77;;;25.10;49.60;;;;;;6365842;22;20083;-73
2022/10/20 15:06:33;;;;;;;77.35;12.38;;;25.10;49.80;;;;;;6367261;22;20085;-72
2022/10/20 15:09:00;;;;;;;63.33;15.18;;;25.00;50.10;;;;;;6366355;22;20082;-73
2022/10/20 15:11:30;;;;;;;28.55;9.50;;;25.00;50.20;;;;;;6367157;22;20097;-72
2022/10/20 15:13:58;;;;;;;12.70;3.40;;;25.00;51.60;;;;;;6367595;22;20053;-71
2022/10/20 15:16:39;;;;;;;7.88;3.65;;;25.00;52.80;;;;;;6365374;22;20450;-72
2022/10/20 15:19:22;;;;;;;7.32;3.72;;;24.90;51.80;;;;;;6367015;22;20437;-71
2022/10/20 15:21:56;;;;;;;10.52;3.75;;;24.80;52.00;;;;;;6365153;22;20067;-73
2022/10/20 15:24:23;;;;;;;10.02;3.47;;;24.80;52.10;;;;;;6366129;22;20042;-73
2022/10/20 15:26:49;;;;;;;8.48;2.60;;;24.80;52.40;;;;;;6365753;22;19995;-74
2022/10/20 15:29:16;;;;;;;9.10;2.50;;;24.80;52.50;;;;;;6365145;22;20002;-71
2022/10/20 15:31:42;;;;;;;13.73;2.78;;;24.70;52.40;;;;;;6367067;22;20006;-73
2022/10/20 15:34:10;;;;;;;7.85;1.90;;;24.70;52.40;;;;;;6366217;22;20014;-74
2022/10/20 15:36:37;;;;;;;10.05;2.17;;;24.70;51.90;;;;;;6366845;22;19999;-76
2022/10/20 15:39:04;;;;;;;13.13;2.42;;;24.70;51.90;;;;;;6364124;22;20421;-72
2022/10/20 15:41:33;;;;;;;5.40;2.47;;;24.70;52.40;;;;;;6365429;22;20025;-72
2022/10/20 15:44:13;;;;;;;6.43;1.58;;;24.60;52.40;;;;;;6364975;22;20430;-74
2022/10/20 15:46:41;;;;;;;11.82;3.17;;;24.60;52.20;;;;;;6364124;22;19998;-73
2022/10/20 15:49:08;;;;;;;10.10;3.20;;;24.60;52.30;;;;;;6365442;22;20404;-72
2022/10/20 15:51:39;;;;;;;11.18;2.97;;;24.50;52.30;;;;;;6364618;22;20097;-75
2022/10/20 15:54:06;;;;;;;9.60;2.58;;;24.50;52.60;;;;;;6358040;22;20003;-76
2022/10/20 15:56:34;;;;;;;8.48;2.55;;;24.50;52.80;;;;;;6362782;22;20329;-72
2022/10/20 15:59:01;;;;;;;7.68;2.97;;;24.50;52.80;;;;;;6364353;22;20435;-73
2022/10/20 16:01:27;;;;;;;8.93;3.50;;;24.40;52.80;;;;;;6365240;22;20059;-73
2022/10/20 16:03:54;;;;;;;8.75;2.28;;;24.40;53.10;;;;;;6362160;22;20005;-74
2022/10/20 16:06:21;;;;;;;4.90;1.65;;;24.40;53.30;;;;;;6364506;22;20052;-73
2022/10/20 16:08:49;;;;;;;6.25;2.13;;;24.40;53.30;;;;;;6362375;22;19998;-73
2022/10/20 16:11:17;;;;;;;5.35;2.60;;;24.40;53.40;;;;;;6363942;22;20010;-71
2022/10/20 16:13:44;;;;;;;6.68;2.08;;;24.30;53.60;;;;;;6363138;22;20007;-72
2022/10/20 16:16:14;;;;;;;9.50;2.80;;;24.30;53.60;;;;;;6364571;22;20321;-72
2022/10/20 16:18:40;;;;;;;12.70;3.50;;;24.20;53.60;;;;;;6362827;22;20074;-73
2022/10/20 16:21:07;;;;;;;13.95;3.10;;;24.20;53.90;;;;;;6364029;22;19994;-72
2022/10/20 16:23:37;;;;;;;9.88;2.15;;;24.10;54.70;;;;;;6364606;22;20006;-73
2022/10/20 16:26:08;;;;;;;6.80;2.38;;;24.10;54.70;;;;;;6363774;22;20114;-73
2022/10/20 16:28:35;;;;;;;9.05;2.53;;;24.10;54.60;;;;;;6363789;22;20329;-71
2022/10/20 16:31:13;;;;;;;11.05;2.33;;;24.00;54.70;;;;;;6362710;22;20078;-75
2022/10/20 16:33:39;;;;;;;9.15;2.45;;;24.00;55.00;;;;;;6364238;22;20029;-73
2022/10/20 16:36:08;;;;;;;11.90;2.28;;;23.90;54.80;;;;;;6365161;22;20124;-73
2022/10/20 16:38:36;;;;;;;10.45;2.53;;;23.90;54.90;;;;;;6363818;22;20413;-73
2022/10/20 16:41:10;;;;;;;9.55;2.38;;;23.90;55.20;;;;;;6365409;22;20031;-74
2022/10/20 16:43:43;;;;;;;2.70;1.45;;;23.80;55.50;;;;;;6361292;22;20040;-72
2022/10/20 16:46:10;;;;;;;7.00;2.42;;;23.80;55.80;;;;;;6364189;22;20052;-76
2022/10/20 16:48:37;;;;;;;6.35;2.95;;;23.80;56.00;;;;;;6363953;22;19998;-71
2022/10/20 16:51:09;;;;;;;20.15;3.15;;;23.80;56.40;;;;;;6363075;22;20013;-72
2022/10/20 16:53:36;;;;;;;28.80;12.60;;;23.70;56.30;;;;;;6363911;22;20376;-75
2022/10/20 16:56:02;;;;;;;22.33;11.13;;;23.70;57.00;;;;;;6363490;22;20006;-73
2022/10/20 16:58:29;;;;;;;12.50;7.28;;;23.70;57.40;;;;;;6364820;22;20390;-73
2022/10/20 17:01:42;;;;;;;23.27;6.10;;;23.70;57.00;;;;;;6361867;22;20003;-74
2022/10/20 17:04:48;;;;;;;10.32;3.70;;;23.70;56.80;;;;;;6364784;22;20024;-73
2022/10/20 17:07:54;;;;;;;8.02;2.38;;;23.70;56.30;;;;;;6364754;22;20161;-73
2022/10/20 17:11:00;;;;;;;12.20;5.07;;;23.70;56.10;;;;;;6363661;22;20073;-74
2022/10/20 17:14:05;;;;;;;10.57;6.38;;;23.60;56.00;;;;;;6363940;22;20002;-71
2022/10/20 17:16:34;;;;;;;9.48;4.32;;;23.60;56.10;;;;;;6364275;22;20055;-71
2022/10/20 17:19:02;;;;;;;9.15;2.72;;;23.60;56.10;;;;;;6363281;22;20070;-71
2022/10/20 17:21:30;;;;;;;8.55;2.67;;;23.50;55.90;;;;;;6363992;22;20382;-71
2022/10/20 17:23:57;;;;;;;5.22;2.17;;;23.50;55.80;;;;;;6363946;22;20007;-71
2022/10/20 17:26:25;;;;;;;8.23;4.07;;;23.50;55.90;;;;;;6363716;22;20017;-71
2022/10/20 17:28:56;;;;;;;9.30;2.58;;;23.40;55.90;;;;;;6364636;22;20003;-72
2022/10/20 17:31:23;;;;;;;6.85;1.80;;;23.40;56.00;;;;;;6362975;22;20002;-71
2022/10/20 17:33:50;;;;;;;6.30;2.38;;;23.40;55.90;;;;;;6364582;22;20321;-71
2022/10/20 17:36:18;;;;;;;5.80;2.35;;;23.30;56.00;;;;;;6363022;22;20354;-72
2022/10/20 17:38:45;;;;;;;6.28;2.95;;;23.30;56.10;;;;;;6364395;22;20006;-71
2022/10/20 17:41:14;;;;;;;8.80;2.20;;;23.30;56.20;;;;;;6364606;22;19998;-72
2022/10/20 17:43:40;;;;;;;5.22;2.22;;;23.30;56.30;;;;;;6364036;22;20080;-72
2022/10/20 17:46:10;;;;;;;7.93;3.38;;;23.20;56.30;;;;;;6364707;22;20001;-72
2022/10/20 17:48:37;;;;;;;12.45;2.65;;;23.20;56.50;;;;;;6362657;22;19998;-72
2022/10/20 17:51:20;;;;;;;8.13;2.90;;;23.20;56.50;;;;;;6364885;22;20030;-71
2022/10/20 17:53:48;;;;;;;8.25;3.22;;;23.20;56.60;;;;;;6363340;22;19998;-71
2022/10/20 17:56:18;;;;;;;11.13;2.97;;;23.10;56.60;;;;;;6364908;22;20420;-71
2022/10/20 17:58:46;;;;;;;4.75;2.17;;;23.10;56.70;;;;;;6364183;22;20048;-71
2022/10/20 18:01:22;;;;;;;11.20;3.83;;;23.10;56.70;;;;;;6363366;22;20001;-71
2022/10/20 18:03:53;;;;;;;12.23;2.47;;;23.10;56.80;;;;;;6363394;22;20044;-71
2022/10/20 18:06:22;;;;;;;6.80;2.20;;;23.10;57.00;;;;;;6362446;22;20081;-72
2022/10/20 18:08:51;;;;;;;9.30;2.63;;;23.00;57.70;;;;;;6364174;22;20033;-71
2022/10/20 18:11:23;;;;;;;14.45;4.55;;;23.00;57.20;;;;;;6363460;22;20014;-72
2022/10/20 18:13:50;;;;;;;11.18;3.83;;;23.00;57.50;;;;;;6363952;22;20438;-71
2022/10/20 18:16:19;;;;;;;9.25;3.47;;;22.90;57.90;;;;;;6363634;22;19999;-71
2022/10/20 18:18:46;;;;;;;8.68;3.08;;;22.90;57.90;;;;;;6362400;22;20497;-72
2022/10/20 18:21:14;;;;;;;4.95;2.90;;;22.90;57.80;;;;;;6363833;22;20078;-71
2022/10/20 18:23:44;;;;;;;6.97;2.70;;;22.80;57.80;;;;;;6362453;22;20002;-72
2022/10/20 18:26:20;;;;;;;6.07;2.15;;;22.90;57.80;;;;;;6364207;22;20033;-72
2022/10/20 18:28:47;;;;;;;9.45;2.60;;;22.80;57.70;;;;;;6361077;22;20016;-72
2022/10/20 18:31:17;;;;;;;7.72;2.08;;;22.80;57.80;;;;;;6363475;22;20006;-72
2022/10/20 18:33:45;;;;;;;9.35;3.08;;;22.80;57.80;;;;;;6363225;22;19998;-73
2022/10/20 18:36:13;;;;;;;8.02;3.13;;;22.80;57.90;;;;;;6365373;22;19998;-72
2022/10/20 18:38:41;;;;;;;6.90;2.30;;;22.80;58.10;;;;;;6366456;22;20009;-72
2022/10/20 18:41:11;;;;;;;3.97;1.60;;;22.80;58.10;;;;;;6364398;22;20321;-72
2022/10/20 18:43:38;;;;;;;7.18;3.00;;;22.70;58.20;;;;;;6366488;22;19991;-71